sensor_id;sensor_type;location;lat;lon;timestamp;temperature;humidity
16038;DHT22;8123;50.906;6.172;2022-10-17T00:01:20;14.30;99.90
16038;DHT22;8123;50.906;6.172;2022-10-17T00:03:45;14.30;99.90
16038;DHT22;8123;50.906;6.172;2022-10-17T00:06:13;14.30;99.90
16038;DHT22;8123;50.906;6.172;2022-10-17T00:08:43;14.30;99.90
16038;DHT22;8123;50.906;6.172;2022-10-17T00:11:17;14.70;99.90
16038;DHT22;8123;50.906;6.172;2022-10-17T00:13:45;15.10;99.90
16038;DHT22;8123;50.906;6.172;2022-10-17T00:16:11;15.40;99.90
16038;DHT22;8123;50.906;6.172;2022-10-17T00:18:37;15.70;99.90
16038;DHT22;8123;50.906;6.172;2022-10-17T00:21:02;15.80;99.90
16038;DHT22;8123;50.906;6.172;2022-10-17T00:23:28;16.00;99.90
16038;DHT22;8123;50.906;6.172;2022-10-17T00:26:03;16.20;99.90
16038;DHT22;8123;50.906;6.172;2022-10-17T00:28:29;16.30;99.90
16038;DHT22;8123;50.906;6.172;2022-10-17T00:30:56;16.40;99.90
16038;DHT22;8123;50.906;6.172;2022-10-17T00:33:22;16.50;99.90
16038;DHT22;8123;50.906;6.172;2022-10-17T00:35:48;16.70;99.90
16038;DHT22;8123;50.906;6.172;2022-10-17T00:38:13;16.70;99.90
16038;DHT22;8123;50.906;6.172;2022-10-17T00:40:39;16.90;99.90
16038;DHT22;8123;50.906;6.172;2022-10-17T00:43:14;17.00;99.90
16038;DHT22;8123;50.906;6.172;2022-10-17T00:45:41;17.10;99.90
16038;DHT22;8123;50.906;6.172;2022-10-17T00:48:08;17.20;99.90
16038;DHT22;8123;50.906;6.172;2022-10-17T00:50:36;17.20;99.90
16038;DHT22;8123;50.906;6.172;2022-10-17T00:53:04;17.30;99.90
16038;DHT22;8123;50.906;6.172;2022-10-17T00:55:33;17.20;99.90
16038;DHT22;8123;50.906;6.172;2022-10-17T00:58:02;17.20;99.90
16038;DHT22;8123;50.906;6.172;2022-10-17T01:00:28;17.20;99.90
16038;DHT22;8123;50.906;6.172;2022-10-17T01:02:54;17.10;99.90
16038;DHT22;8123;50.906;6.172;2022-10-17T01:05:20;17.10;99.90
16038;DHT22;8123;50.906;6.172;2022-10-17T01:07:48;17.10;99.90
16038;DHT22;8123;50.906;6.172;2022-10-17T01:10:15;17.00;99.90
16038;DHT22;8123;50.906;6.172;2022-10-17T01:13:20;17.10;99.90
16038;DHT22;8123;50.906;6.172;2022-10-17T01:18:36;16.90;99.90
16038;DHT22;8123;50.906;6.172;2022-10-17T01:27:03;16.90;99.90
16038;DHT22;8123;50.906;6.172;2022-10-17T01:35:25;17.00;99.90
16038;DHT22;8123;50.906;6.172;2022-10-17T01:37:56;17.00;99.90
16038;DHT22;8123;50.906;6.172;2022-10-17T01:40:32;16.90;99.90
16038;DHT22;8123;50.906;6.172;2022-10-17T01:43:17;16.80;99.90
16038;DHT22;8123;50.906;6.172;2022-10-17T01:45:49;16.90;99.90
16038;DHT22;8123;50.906;6.172;2022-10-17T01:48:21;16.90;99.90
16038;DHT22;8123;50.906;6.172;2022-10-17T01:50:51;16.90;99.90
16038;DHT22;8123;50.906;6.172;2022-10-17T01:53:27;16.90;99.90
16038;DHT22;8123;50.906;6.172;2022-10-17T01:55:56;16.90;99.90
16038;DHT22;8123;50.906;6.172;2022-10-17T01:58:31;16.90;99.90
16038;DHT22;8123;50.906;6.172;2022-10-17T02:01:01;16.90;99.90
16038;DHT22;8123;50.906;6.172;2022-10-17T02:03:28;16.90;99.90
16038;DHT22;8123;50.906;6.172;2022-10-17T02:05:54;16.90;99.90
16038;DHT22;8123;50.906;6.172;2022-10-17T02:08:43;16.90;99.90
16038;DHT22;8123;50.906;6.172;2022-10-17T02:11:23;17.00;99.90
16038;DHT22;8123;50.906;6.172;2022-10-17T02:32:54;17.00;99.90
16038;DHT22;8123;50.906;6.172;2022-10-17T02:35:27;17.00;99.90
16038;DHT22;8123;50.906;6.172;2022-10-17T02:37:55;17.00;99.90
16038;DHT22;8123;50.906;6.172;2022-10-17T02:40:23;17.00;99.90
16038;DHT22;8123;50.906;6.172;2022-10-17T02:42:52;17.00;99.90
16038;DHT22;8123;50.906;6.172;2022-10-17T02:45:19;17.10;99.90
16038;DHT22;8123;50.906;6.172;2022-10-17T02:48:01;17.20;99.90
16038;DHT22;8123;50.906;6.172;2022-10-17T02:51:14;17.20;99.90
16038;DHT22;8123;50.906;6.172;2022-10-17T02:56:17;17.30;99.90
16038;DHT22;8123;50.906;6.172;2022-10-17T02:58:47;17.40;99.90
16038;DHT22;8123;50.906;6.172;2022-10-17T03:01:15;17.40;99.90
16038;DHT22;8123;50.906;6.172;2022-10-17T03:03:41;17.40;99.90
16038;DHT22;8123;50.906;6.172;2022-10-17T03:06:07;17.40;99.90
16038;DHT22;8123;50.906;6.172;2022-10-17T03:08:32;17.40;99.90
16038;DHT22;8123;50.906;6.172;2022-10-17T03:10:58;17.40;99.90
16038;DHT22;8123;50.906;6.172;2022-10-17T03:13:23;17.50;99.90
16038;DHT22;8123;50.906;6.172;2022-10-17T03:15:49;17.50;99.90
16038;DHT22;8123;50.906;6.172;2022-10-17T03:18:15;17.40;99.90
16038;DHT22;8123;50.906;6.172;2022-10-17T03:20:40;17.50;99.90
16038;DHT22;8123;50.906;6.172;2022-10-17T03:23:06;17.50;99.90
16038;DHT22;8123;50.906;6.172;2022-10-17T03:25:32;17.50;99.90
16038;DHT22;8123;50.906;6.172;2022-10-17T03:27:58;17.40;99.90
16038;DHT22;8123;50.906;6.172;2022-10-17T03:30:27;17.50;99.90
16038;DHT22;8123;50.906;6.172;2022-10-17T03:32:53;17.60;99.90
16038;DHT22;8123;50.906;6.172;2022-10-17T03:35:19;17.60;99.90
16038;DHT22;8123;50.906;6.172;2022-10-17T03:37:44;17.60;99.90
16038;DHT22;8123;50.906;6.172;2022-10-17T03:40:10;17.60;99.90
16038;DHT22;8123;50.906;6.172;2022-10-17T03:42:36;17.70;99.90
16038;DHT22;8123;50.906;6.172;2022-10-17T03:45:02;17.70;99.90
16038;DHT22;8123;50.906;6.172;2022-10-17T03:47:28;17.70;99.90
16038;DHT22;8123;50.906;6.172;2022-10-17T03:49:53;17.70;99.90
16038;DHT22;8123;50.906;6.172;2022-10-17T03:52:19;17.70;99.90
16038;DHT22;8123;50.906;6.172;2022-10-17T03:54:45;17.70;99.90
16038;DHT22;8123;50.906;6.172;2022-10-17T03:57:10;17.80;99.90
16038;DHT22;8123;50.906;6.172;2022-10-17T03:59:36;17.80;99.90
16038;DHT22;8123;50.906;6.172;2022-10-17T04:02:02;17.80;99.90
16038;DHT22;8123;50.906;6.172;2022-10-17T04:04:27;17.70;99.90
16038;DHT22;8123;50.906;6.172;2022-10-17T04:06:53;17.70;99.90
16038;DHT22;8123;50.906;6.172;2022-10-17T04:09:18;17.80;99.90
16038;DHT22;8123;50.906;6.172;2022-10-17T04:11:44;17.80;99.90
16038;DHT22;8123;50.906;6.172;2022-10-17T04:14:10;17.80;99.90
16038;DHT22;8123;50.906;6.172;2022-10-17T04:16:35;17.80;99.90
16038;DHT22;8123;50.906;6.172;2022-10-17T04:19:01;17.80;99.90
16038;DHT22;8123;50.906;6.172;2022-10-17T04:21:27;17.90;99.90
16038;DHT22;8123;50.906;6.172;2022-10-17T04:23:54;17.90;99.90
16038;DHT22;8123;50.906;6.172;2022-10-17T04:26:21;18.00;99.90
16038;DHT22;8123;50.906;6.172;2022-10-17T04:28:46;18.00;99.90
16038;DHT22;8123;50.906;6.172;2022-10-17T04:31:13;18.10;99.90
16038;DHT22;8123;50.906;6.172;2022-10-17T04:33:39;18.10;99.90
16038;DHT22;8123;50.906;6.172;2022-10-17T04:36:08;18.10;99.90
16038;DHT22;8123;50.906;6.172;2022-10-17T04:38:34;18.10;99.90
16038;DHT22;8123;50.906;6.172;2022-10-17T04:41:02;18.10;99.90
16038;DHT22;8123;50.906;6.172;2022-10-17T04:43:36;18.10;99.90
16038;DHT22;8123;50.906;6.172;2022-10-17T04:46:06;18.10;99.90
16038;DHT22;8123;50.906;6.172;2022-10-17T04:48:32;18.00;99.90
16038;DHT22;8123;50.906;6.172;2022-10-17T04:51:11;17.90;99.90
16038;DHT22;8123;50.906;6.172;2022-10-17T04:53:38;17.90;99.90
16038;DHT22;8123;50.906;6.172;2022-10-17T04:56:23;17.90;99.90
16038;DHT22;8123;50.906;6.172;2022-10-17T04:58:50;17.90;99.90
16038;DHT22;8123;50.906;6.172;2022-10-17T05:01:21;18.00;99.90
16038;DHT22;8123;50.906;6.172;2022-10-17T05:03:47;18.00;99.90
16038;DHT22;8123;50.906;6.172;2022-10-17T05:06:15;18.00;99.90
16038;DHT22;8123;50.906;6.172;2022-10-17T05:08:42;18.00;99.90
16038;DHT22;8123;50.906;6.172;2022-10-17T05:11:34;18.10;99.90
16038;DHT22;8123;50.906;6.172;2022-10-17T05:14:00;18.40;99.90
16038;DHT22;8123;50.906;6.172;2022-10-17T05:16:27;18.10;99.90
16038;DHT22;8123;50.906;6.172;2022-10-17T05:18:55;18.00;99.90
16038;DHT22;8123;50.906;6.172;2022-10-17T05:21:22;18.00;99.90
16038;DHT22;8123;50.906;6.172;2022-10-17T05:23:48;18.10;99.90
16038;DHT22;8123;50.906;6.172;2022-10-17T05:26:15;18.00;99.90
16038;DHT22;8123;50.906;6.172;2022-10-17T05:28:40;18.00;99.90
16038;DHT22;8123;50.906;6.172;2022-10-17T05:31:08;18.00;99.90
16038;DHT22;8123;50.906;6.172;2022-10-17T05:33:34;17.90;99.90
16038;DHT22;8123;50.906;6.172;2022-10-17T05:36:01;17.90;99.90
16038;DHT22;8123;50.906;6.172;2022-10-17T05:38:27;17.90;99.90
16038;DHT22;8123;50.906;6.172;2022-10-17T05:40:57;17.90;99.90
16038;DHT22;8123;50.906;6.172;2022-10-17T05:43:22;17.90;99.90
16038;DHT22;8123;50.906;6.172;2022-10-17T05:45:48;17.90;99.90
16038;DHT22;8123;50.906;6.172;2022-10-17T05:48:14;17.80;99.90
16038;DHT22;8123;50.906;6.172;2022-10-17T05:50:39;17.80;99.90
16038;DHT22;8123;50.906;6.172;2022-10-17T05:53:05;17.80;99.90
16038;DHT22;8123;50.906;6.172;2022-10-17T05:55:30;17.70;99.90
16038;DHT22;8123;50.906;6.172;2022-10-17T05:57:58;17.70;99.90
16038;DHT22;8123;50.906;6.172;2022-10-17T06:00:23;17.70;99.90
16038;DHT22;8123;50.906;6.172;2022-10-17T06:02:49;17.70;99.90
16038;DHT22;8123;50.906;6.172;2022-10-17T06:05:15;17.70;99.90
16038;DHT22;8123;50.906;6.172;2022-10-17T06:07:41;17.70;99.90
16038;DHT22;8123;50.906;6.172;2022-10-17T06:10:07;17.80;99.90
16038;DHT22;8123;50.906;6.172;2022-10-17T06:12:33;17.80;99.90
16038;DHT22;8123;50.906;6.172;2022-10-17T06:14:58;17.80;99.90
16038;DHT22;8123;50.906;6.172;2022-10-17T06:17:24;17.80;99.90
16038;DHT22;8123;50.906;6.172;2022-10-17T06:19:49;17.80;99.90
16038;DHT22;8123;50.906;6.172;2022-10-17T06:22:15;17.70;99.90
16038;DHT22;8123;50.906;6.172;2022-10-17T06:24:44;17.70;99.90
16038;DHT22;8123;50.906;6.172;2022-10-17T06:27:09;17.70;99.90
16038;DHT22;8123;50.906;6.172;2022-10-17T06:29:35;17.70;99.90
16038;DHT22;8123;50.906;6.172;2022-10-17T06:32:01;17.80;99.90
16038;DHT22;8123;50.906;6.172;2022-10-17T06:34:26;17.80;99.90
16038;DHT22;8123;50.906;6.172;2022-10-17T06:36:52;17.80;99.90
16038;DHT22;8123;50.906;6.172;2022-10-17T06:39:17;17.90;99.90
16038;DHT22;8123;50.906;6.172;2022-10-17T06:41:43;17.90;99.90
16038;DHT22;8123;50.906;6.172;2022-10-17T06:44:17;17.90;99.90
16038;DHT22;8123;50.906;6.172;2022-10-17T06:46:43;17.90;99.90
16038;DHT22;8123;50.906;6.172;2022-10-17T06:49:09;17.90;99.90
16038;DHT22;8123;50.906;6.172;2022-10-17T06:51:36;17.80;99.90
16038;DHT22;8123;50.906;6.172;2022-10-17T06:54:02;17.90;99.90
16038;DHT22;8123;50.906;6.172;2022-10-17T06:56:28;17.90;99.90
16038;DHT22;8123;50.906;6.172;2022-10-17T06:58:54;17.90;99.90
16038;DHT22;8123;50.906;6.172;2022-10-17T07:01:20;17.90;99.90
16038;DHT22;8123;50.906;6.172;2022-10-17T07:03:48;18.00;99.90
16038;DHT22;8123;50.906;6.172;2022-10-17T07:06:20;18.00;99.90
16038;DHT22;8123;50.906;6.172;2022-10-17T07:08:48;18.00;99.90
16038;DHT22;8123;50.906;6.172;2022-10-17T07:11:17;18.00;99.90
16038;DHT22;8123;50.906;6.172;2022-10-17T07:13:43;18.00;99.90
16038;DHT22;8123;50.906;6.172;2022-10-17T07:16:09;18.00;99.90
16038;DHT22;8123;50.906;6.172;2022-10-17T07:18:35;18.00;99.90
16038;DHT22;8123;50.906;6.172;2022-10-17T07:21:01;18.00;99.90
16038;DHT22;8123;50.906;6.172;2022-10-17T07:23:28;18.00;99.90
16038;DHT22;8123;50.906;6.172;2022-10-17T07:25:59;18.00;99.90
16038;DHT22;8123;50.906;6.172;2022-10-17T07:28:26;18.00;99.90
16038;DHT22;8123;50.906;6.172;2022-10-17T07:30:52;18.10;99.90
16038;DHT22;8123;50.906;6.172;2022-10-17T07:33:17;18.00;99.90
16038;DHT22;8123;50.906;6.172;2022-10-17T07:35:43;18.00;99.90
16038;DHT22;8123;50.906;6.172;2022-10-17T07:38:09;18.10;99.90
16038;DHT22;8123;50.906;6.172;2022-10-17T07:40:34;18.10;99.90
16038;DHT22;8123;50.906;6.172;2022-10-17T07:43:00;18.20;99.90
16038;DHT22;8123;50.906;6.172;2022-10-17T07:45:25;18.30;99.90
16038;DHT22;8123;50.906;6.172;2022-10-17T07:47:55;18.30;99.90
16038;DHT22;8123;50.906;6.172;2022-10-17T07:50:26;18.30;99.90
16038;DHT22;8123;50.906;6.172;2022-10-17T07:52:52;18.40;99.90
16038;DHT22;8123;50.906;6.172;2022-10-17T07:55:18;18.40;99.90
16038;DHT22;8123;50.906;6.172;2022-10-17T07:57:44;18.50;99.90
16038;DHT22;8123;50.906;6.172;2022-10-17T08:00:10;18.50;99.90
16038;DHT22;8123;50.906;6.172;2022-10-17T08:02:35;18.60;99.90
16038;DHT22;8123;50.906;6.172;2022-10-17T08:05:01;18.60;99.90
16038;DHT22;8123;50.906;6.172;2022-10-17T08:07:27;18.70;99.90
16038;DHT22;8123;50.906;6.172;2022-10-17T08:09:54;18.80;99.90
16038;DHT22;8123;50.906;6.172;2022-10-17T08:12:20;18.90;99.90
16038;DHT22;8123;50.906;6.172;2022-10-17T08:14:46;18.90;99.90
16038;DHT22;8123;50.906;6.172;2022-10-17T08:17:12;19.10;99.90
16038;DHT22;8123;50.906;6.172;2022-10-17T08:19:39;19.10;99.90
16038;DHT22;8123;50.906;6.172;2022-10-17T08:22:05;19.10;99.90
16038;DHT22;8123;50.906;6.172;2022-10-17T08:24:31;19.10;99.90
16038;DHT22;8123;50.906;6.172;2022-10-17T08:26:59;19.20;99.90
16038;DHT22;8123;50.906;6.172;2022-10-17T08:29:27;19.20;99.90
16038;DHT22;8123;50.906;6.172;2022-10-17T08:31:53;19.10;99.90
16038;DHT22;8123;50.906;6.172;2022-10-17T08:34:19;19.10;99.90
16038;DHT22;8123;50.906;6.172;2022-10-17T08:36:46;19.20;99.90
16038;DHT22;8123;50.906;6.172;2022-10-17T08:39:12;19.20;99.90
16038;DHT22;8123;50.906;6.172;2022-10-17T08:42:08;19.10;99.90
16038;DHT22;8123;50.906;6.172;2022-10-17T08:47:37;19.20;99.90
16038;DHT22;8123;50.906;6.172;2022-10-17T08:50:21;19.30;99.90
16038;DHT22;8123;50.906;6.172;2022-10-17T08:52:52;19.40;99.90
16038;DHT22;8123;50.906;6.172;2022-10-17T08:55:32;19.60;99.90
16038;DHT22;8123;50.906;6.172;2022-10-17T08:58:00;19.80;99.90
16038;DHT22;8123;50.906;6.172;2022-10-17T09:00:28;19.80;99.90
16038;DHT22;8123;50.906;6.172;2022-10-17T09:06:18;19.80;99.90
16038;DHT22;8123;50.906;6.172;2022-10-17T09:08:58;19.80;99.90
16038;DHT22;8123;50.906;6.172;2022-10-17T09:17:25;19.80;99.90
16038;DHT22;8123;50.906;6.172;2022-10-17T09:20:19;19.80;99.90
16038;DHT22;8123;50.906;6.172;2022-10-17T09:22:54;19.90;99.90
16038;DHT22;8123;50.906;6.172;2022-10-17T09:25:21;19.90;99.90
16038;DHT22;8123;50.906;6.172;2022-10-17T09:30:37;19.90;99.90
16038;DHT22;8123;50.906;6.172;2022-10-17T09:33:16;19.80;99.90
16038;DHT22;8123;50.906;6.172;2022-10-17T09:35:42;19.80;99.90
16038;DHT22;8123;50.906;6.172;2022-10-17T09:38:16;19.80;99.90
16038;DHT22;8123;50.906;6.172;2022-10-17T09:40:43;19.70;99.90
16038;DHT22;8123;50.906;6.172;2022-10-17T09:43:12;19.70;99.90
16038;DHT22;8123;50.906;6.172;2022-10-17T09:45:55;19.60;99.90
16038;DHT22;8123;50.906;6.172;2022-10-17T09:48:30;19.60;99.90
16038;DHT22;8123;50.906;6.172;2022-10-17T09:50:59;19.60;99.90
16038;DHT22;8123;50.906;6.172;2022-10-17T09:53:29;19.50;99.90
16038;DHT22;8123;50.906;6.172;2022-10-17T09:56:01;19.50;99.90
16038;DHT22;8123;50.906;6.172;2022-10-17T09:58:59;19.50;99.90
16038;DHT22;8123;50.906;6.172;2022-10-17T10:01:29;19.50;99.90
16038;DHT22;8123;50.906;6.172;2022-10-17T10:04:11;19.40;99.90
16038;DHT22;8123;50.906;6.172;2022-10-17T10:06:38;19.50;99.90
16038;DHT22;8123;50.906;6.172;2022-10-17T10:09:05;19.50;99.90
16038;DHT22;8123;50.906;6.172;2022-10-17T10:11:54;19.60;99.90
16038;DHT22;8123;50.906;6.172;2022-10-17T10:14:31;19.60;99.90
16038;DHT22;8123;50.906;6.172;2022-10-17T10:17:02;19.70;99.90
16038;DHT22;8123;50.906;6.172;2022-10-17T10:19:30;19.70;99.90
16038;DHT22;8123;50.906;6.172;2022-10-17T10:21:58;19.80;99.90
16038;DHT22;8123;50.906;6.172;2022-10-17T10:24:24;19.80;99.90
16038;DHT22;8123;50.906;6.172;2022-10-17T10:26:51;19.90;99.90
16038;DHT22;8123;50.906;6.172;2022-10-17T10:29:36;19.80;99.90
16038;DHT22;8123;50.906;6.172;2022-10-17T10:32:31;19.70;99.90
16038;DHT22;8123;50.906;6.172;2022-10-17T10:35:06;19.80;99.90
16038;DHT22;8123;50.906;6.172;2022-10-17T10:37:41;19.80;99.90
16038;DHT22;8123;50.906;6.172;2022-10-17T10:40:20;19.70;99.90
16038;DHT22;8123;50.906;6.172;2022-10-17T10:42:52;19.70;99.90
16038;DHT22;8123;50.906;6.172;2022-10-17T10:45:25;19.70;99.90
16038;DHT22;8123;50.906;6.172;2022-10-17T10:48:00;19.70;99.90
16038;DHT22;8123;50.906;6.172;2022-10-17T10:50:37;19.70;99.90
16038;DHT22;8123;50.906;6.172;2022-10-17T10:56:18;19.70;99.90
16038;DHT22;8123;50.906;6.172;2022-10-17T11:04:41;19.80;99.90
16038;DHT22;8123;50.906;6.172;2022-10-17T11:15:43;20.20;99.90
16038;DHT22;8123;50.906;6.172;2022-10-17T11:18:21;20.30;99.90
16038;DHT22;8123;50.906;6.172;2022-10-17T11:20:55;20.30;99.90
16038;DHT22;8123;50.906;6.172;2022-10-17T11:23:47;20.40;99.90
16038;DHT22;8123;50.906;6.172;2022-10-17T11:26:21;20.40;99.90
16038;DHT22;8123;50.906;6.172;2022-10-17T11:28:55;20.50;99.90
16038;DHT22;8123;50.906;6.172;2022-10-17T11:31:24;20.50;99.90
16038;DHT22;8123;50.906;6.172;2022-10-17T11:34:06;20.50;99.90
16038;DHT22;8123;50.906;6.172;2022-10-17T11:36:38;20.60;99.90
16038;DHT22;8123;50.906;6.172;2022-10-17T11:39:11;20.50;99.90
16038;DHT22;8123;50.906;6.172;2022-10-17T11:41:52;20.50;99.90
16038;DHT22;8123;50.906;6.172;2022-10-17T11:44:34;20.40;99.90
16038;DHT22;8123;50.906;6.172;2022-10-17T11:49:48;20.50;99.90
16038;DHT22;8123;50.906;6.172;2022-10-17T11:55:02;20.50;99.90
16038;DHT22;8123;50.906;6.172;2022-10-17T12:00:49;20.50;99.90
16038;DHT22;8123;50.906;6.172;2022-10-17T12:12:00;20.50;99.90
16038;DHT22;8123;50.906;6.172;2022-10-17T12:16:59;20.50;99.90
16038;DHT22;8123;50.906;6.172;2022-10-17T12:19:34;20.50;99.90
16038;DHT22;8123;50.906;6.172;2022-10-17T12:24:41;20.50;99.90
16038;DHT22;8123;50.906;6.172;2022-10-17T12:27:30;20.50;99.90
16038;DHT22;8123;50.906;6.172;2022-10-17T12:33:05;20.50;99.90
16038;DHT22;8123;50.906;6.172;2022-10-17T12:35:41;20.40;99.90
16038;DHT22;8123;50.906;6.172;2022-10-17T12:45:59;20.30;99.90
16038;DHT22;8123;50.906;6.172;2022-10-17T12:51:04;20.30;99.90
16038;DHT22;8123;50.906;6.172;2022-10-17T12:56:34;20.20;99.90
16038;DHT22;8123;50.906;6.172;2022-10-17T12:59:06;20.20;99.90
16038;DHT22;8123;50.906;6.172;2022-10-17T13:01:35;20.20;99.90
16038;DHT22;8123;50.906;6.172;2022-10-17T13:04:01;20.20;99.90
16038;DHT22;8123;50.906;6.172;2022-10-17T13:06:31;20.10;99.90
16038;DHT22;8123;50.906;6.172;2022-10-17T13:09:32;20.10;99.90
16038;DHT22;8123;50.906;6.172;2022-10-17T13:12:02;20.10;99.90
16038;DHT22;8123;50.906;6.172;2022-10-17T13:14:30;20.10;99.90
16038;DHT22;8123;50.906;6.172;2022-10-17T13:17:01;20.10;99.90
16038;DHT22;8123;50.906;6.172;2022-10-17T13:19:39;20.10;99.90
16038;DHT22;8123;50.906;6.172;2022-10-17T13:22:15;20.20;99.90
16038;DHT22;8123;50.906;6.172;2022-10-17T13:24:42;20.10;99.90
16038;DHT22;8123;50.906;6.172;2022-10-17T13:27:27;20.10;99.90
16038;DHT22;8123;50.906;6.172;2022-10-17T13:29:54;20.10;99.90
16038;DHT22;8123;50.906;6.172;2022-10-17T13:32:22;20.10;99.90
16038;DHT22;8123;50.906;6.172;2022-10-17T13:35:04;20.10;99.90
16038;DHT22;8123;50.906;6.172;2022-10-17T13:37:33;20.10;99.90
16038;DHT22;8123;50.906;6.172;2022-10-17T13:39:59;20.10;99.90
16038;DHT22;8123;50.906;6.172;2022-10-17T13:42:35;20.00;99.90
16038;DHT22;8123;50.906;6.172;2022-10-17T13:45:02;20.00;99.90
16038;DHT22;8123;50.906;6.172;2022-10-17T13:47:33;20.00;99.90
16038;DHT22;8123;50.906;6.172;2022-10-17T13:50:01;20.00;99.90
16038;DHT22;8123;50.906;6.172;2022-10-17T13:52:28;20.00;99.90
16038;DHT22;8123;50.906;6.172;2022-10-17T13:54:54;20.00;99.90
16038;DHT22;8123;50.906;6.172;2022-10-17T13:57:30;20.00;99.90
16038;DHT22;8123;50.906;6.172;2022-10-17T14:00:00;20.00;99.90
16038;DHT22;8123;50.906;6.172;2022-10-17T14:02:29;20.00;99.90
16038;DHT22;8123;50.906;6.172;2022-10-17T14:05:17;20.00;99.90
16038;DHT22;8123;50.906;6.172;2022-10-17T14:10:34;19.90;99.90
16038;DHT22;8123;50.906;6.172;2022-10-17T14:13:02;19.90;99.90
16038;DHT22;8123;50.906;6.172;2022-10-17T14:20:52;19.60;99.90
16038;DHT22;8123;50.906;6.172;2022-10-17T14:26:20;19.70;99.90
16038;DHT22;8123;50.906;6.172;2022-10-17T14:29:02;19.70;99.90
16038;DHT22;8123;50.906;6.172;2022-10-17T14:31:34;19.70;99.90
16038;DHT22;8123;50.906;6.172;2022-10-17T14:34:01;19.60;99.90
16038;DHT22;8123;50.906;6.172;2022-10-17T14:36:38;19.60;99.90
16038;DHT22;8123;50.906;6.172;2022-10-17T14:39:07;19.60;99.90
16038;DHT22;8123;50.906;6.172;2022-10-17T14:41:35;19.60;99.90
16038;DHT22;8123;50.906;6.172;2022-10-17T14:44:03;19.50;99.90
16038;DHT22;8123;50.906;6.172;2022-10-17T14:46:31;19.40;99.90
16038;DHT22;8123;50.906;6.172;2022-10-17T14:49:06;19.40;99.90
16038;DHT22;8123;50.906;6.172;2022-10-17T14:51:32;19.40;99.90
16038;DHT22;8123;50.906;6.172;2022-10-17T14:56:42;19.30;99.90
16038;DHT22;8123;50.906;6.172;2022-10-17T14:59:13;19.20;99.90
16038;DHT22;8123;50.906;6.172;2022-10-17T15:01:41;19.10;99.90
16038;DHT22;8123;50.906;6.172;2022-10-17T15:04:07;19.10;99.90
16038;DHT22;8123;50.906;6.172;2022-10-17T15:06:35;19.00;99.90
16038;DHT22;8123;50.906;6.172;2022-10-17T15:09:01;19.00;99.90
16038;DHT22;8123;50.906;6.172;2022-10-17T15:11:27;18.90;99.90
16038;DHT22;8123;50.906;6.172;2022-10-17T15:13:53;18.90;99.90
16038;DHT22;8123;50.906;6.172;2022-10-17T15:16:21;18.80;99.90
16038;DHT22;8123;50.906;6.172;2022-10-17T15:18:47;18.80;99.90
16038;DHT22;8123;50.906;6.172;2022-10-17T15:21:14;18.80;99.90
16038;DHT22;8123;50.906;6.172;2022-10-17T15:23:40;18.80;99.90
16038;DHT22;8123;50.906;6.172;2022-10-17T15:26:25;18.70;99.90
16038;DHT22;8123;50.906;6.172;2022-10-17T15:28:52;18.60;99.90
16038;DHT22;8123;50.906;6.172;2022-10-17T15:31:20;18.50;99.90
16038;DHT22;8123;50.906;6.172;2022-10-17T15:33:46;18.50;99.90
16038;DHT22;8123;50.906;6.172;2022-10-17T15:36:37;18.40;99.90
16038;DHT22;8123;50.906;6.172;2022-10-17T15:39:03;18.30;99.90
16038;DHT22;8123;50.906;6.172;2022-10-17T15:41:30;18.30;99.90
16038;DHT22;8123;50.906;6.172;2022-10-17T15:43:57;18.10;99.90
16038;DHT22;8123;50.906;6.172;2022-10-17T15:46:27;18.10;99.90
16038;DHT22;8123;50.906;6.172;2022-10-17T15:48:54;18.10;99.90
16038;DHT22;8123;50.906;6.172;2022-10-17T15:51:20;18.00;99.90
16038;DHT22;8123;50.906;6.172;2022-10-17T15:53:46;17.90;99.90
16038;DHT22;8123;50.906;6.172;2022-10-17T15:56:28;17.90;99.90
16038;DHT22;8123;50.906;6.172;2022-10-17T15:58:55;17.80;99.90
16038;DHT22;8123;50.906;6.172;2022-10-17T16:01:23;17.80;99.90
16038;DHT22;8123;50.906;6.172;2022-10-17T16:03:50;17.70;99.90
16038;DHT22;8123;50.906;6.172;2022-10-17T16:06:17;17.70;99.90
16038;DHT22;8123;50.906;6.172;2022-10-17T16:08:44;17.70;99.90
16038;DHT22;8123;50.906;6.172;2022-10-17T16:11:40;17.60;99.90
16038;DHT22;8123;50.906;6.172;2022-10-17T16:14:11;17.50;99.90
16038;DHT22;8123;50.906;6.172;2022-10-17T16:16:38;17.60;99.90
16038;DHT22;8123;50.906;6.172;2022-10-17T16:19:04;17.50;99.90
16038;DHT22;8123;50.906;6.172;2022-10-17T16:21:33;17.60;99.90
16038;DHT22;8123;50.906;6.172;2022-10-17T16:23:59;17.50;99.90
16038;DHT22;8123;50.906;6.172;2022-10-17T16:26:28;17.50;99.90
16038;DHT22;8123;50.906;6.172;2022-10-17T16:28:54;17.40;99.90
16038;DHT22;8123;50.906;6.172;2022-10-17T16:31:32;17.40;99.90
16038;DHT22;8123;50.906;6.172;2022-10-17T16:33:59;17.40;99.90
16038;DHT22;8123;50.906;6.172;2022-10-17T16:36:26;17.40;99.90
16038;DHT22;8123;50.906;6.172;2022-10-17T16:38:52;17.40;99.90
16038;DHT22;8123;50.906;6.172;2022-10-17T16:41:27;17.30;99.90
16038;DHT22;8123;50.906;6.172;2022-10-17T16:43:55;17.30;99.90
16038;DHT22;8123;50.906;6.172;2022-10-17T16:46:21;17.30;99.90
16038;DHT22;8123;50.906;6.172;2022-10-17T16:48:47;17.30;99.90
16038;DHT22;8123;50.906;6.172;2022-10-17T16:51:14;17.30;99.90
16038;DHT22;8123;50.906;6.172;2022-10-17T16:53:41;17.20;99.90
16038;DHT22;8123;50.906;6.172;2022-10-17T16:56:11;17.20;99.90
16038;DHT22;8123;50.906;6.172;2022-10-17T16:58:38;17.20;99.90
16038;DHT22;8123;50.906;6.172;2022-10-17T17:01:07;17.20;99.90
16038;DHT22;8123;50.906;6.172;2022-10-17T17:03:35;17.10;99.90
16038;DHT22;8123;50.906;6.172;2022-10-17T17:06:01;17.10;99.90
16038;DHT22;8123;50.906;6.172;2022-10-17T17:08:27;17.10;99.90
16038;DHT22;8123;50.906;6.172;2022-10-17T17:10:52;17.10;99.90
16038;DHT22;8123;50.906;6.172;2022-10-17T17:13:19;17.10;99.90
16038;DHT22;8123;50.906;6.172;2022-10-17T17:15:45;17.00;99.90
16038;DHT22;8123;50.906;6.172;2022-10-17T17:18:11;17.00;99.90
16038;DHT22;8123;50.906;6.172;2022-10-17T17:20:39;17.00;99.90
16038;DHT22;8123;50.906;6.172;2022-10-17T17:23:06;16.90;99.90
16038;DHT22;8123;50.906;6.172;2022-10-17T17:25:35;16.90;99.90
16038;DHT22;8123;50.906;6.172;2022-10-17T17:28:02;16.90;99.90
16038;DHT22;8123;50.906;6.172;2022-10-17T17:30:28;16.90;99.90
16038;DHT22;8123;50.906;6.172;2022-10-17T17:32:54;16.80;99.90
16038;DHT22;8123;50.906;6.172;2022-10-17T17:35:20;16.90;99.90
16038;DHT22;8123;50.906;6.172;2022-10-17T17:37:45;16.90;99.90
16038;DHT22;8123;50.906;6.172;2022-10-17T17:40:11;16.90;99.90
16038;DHT22;8123;50.906;6.172;2022-10-17T17:42:37;16.80;99.90
16038;DHT22;8123;50.906;6.172;2022-10-17T17:45:03;16.80;99.90
16038;DHT22;8123;50.906;6.172;2022-10-17T17:47:29;16.80;99.90
16038;DHT22;8123;50.906;6.172;2022-10-17T17:49:54;16.70;99.90
16038;DHT22;8123;50.906;6.172;2022-10-17T17:52:20;16.70;99.90
16038;DHT22;8123;50.906;6.172;2022-10-17T17:54:46;16.70;99.90
16038;DHT22;8123;50.906;6.172;2022-10-17T17:57:11;16.70;99.90
16038;DHT22;8123;50.906;6.172;2022-10-17T17:59:37;16.60;99.90
16038;DHT22;8123;50.906;6.172;2022-10-17T18:02:03;16.60;99.90